createdAt,value
2022-11-18T00:00:06.091Z,1.40
2022-11-18T00:00:18.482Z,1.42
2022-11-18T00:00:30.371Z,1.35
2022-11-18T00:00:42.281Z,1.40
2022-11-18T00:00:54.186Z,1.40
2022-11-18T00:01:11.650Z,1.40
2022-11-18T00:01:24.053Z,1.38
2022-11-18T00:01:36.092Z,1.42
2022-11-18T00:01:48.375Z,1.45
2022-11-18T00:02:00.422Z,1.40
2022-11-18T00:02:12.474Z,1.40
2022-11-18T00:02:24.475Z,1.30
2022-11-18T00:02:36.529Z,1.30
2022-11-18T00:02:48.495Z,1.38
2022-11-18T00:03:00.413Z,1.48
2022-11-18T00:03:12.355Z,1.63
2022-11-18T00:03:24.248Z,1.50
2022-11-18T00:03:37.131Z,1.42
2022-11-18T00:03:50.191Z,1.33
2022-11-18T00:04:02.265Z,1.48
2022-11-18T00:04:14.368Z,1.50
2022-11-18T00:04:26.321Z,1.67
2022-11-18T00:04:38.223Z,1.70
2022-11-18T00:04:50.123Z,1.60
2022-11-18T00:05:02.100Z,1.58
2022-11-18T00:05:14.113Z,1.52
2022-11-18T00:05:26.083Z,1.70
2022-11-18T00:05:38.055Z,1.60
2022-11-18T00:05:57.392Z,1.52
2022-11-18T00:06:14.898Z,1.40
2022-11-18T00:06:29.222Z,1.33
2022-11-18T00:06:41.350Z,1.30
2022-11-18T00:06:53.393Z,1.30
2022-11-18T00:07:05.578Z,1.27
2022-11-18T00:07:17.637Z,1.35
2022-11-18T00:07:29.749Z,1.30
2022-11-18T00:07:41.781Z,1.30
2022-11-18T00:07:53.877Z,1.45
2022-11-18T00:08:06.063Z,1.60
2022-11-18T00:08:17.997Z,1.70
2022-11-18T00:08:30.591Z,1.67
2022-11-18T00:08:42.916Z,1.58
2022-11-18T00:08:55.841Z,1.30
2022-11-18T00:09:08.831Z,1.10
2022-11-18T00:09:20.870Z,1.20
2022-11-18T00:09:32.822Z,1.40
2022-11-18T00:09:44.757Z,1.60
2022-11-18T00:09:56.698Z,1.58
2022-11-18T00:10:08.846Z,1.48
2022-11-18T00:10:20.836Z,1.20
2022-11-18T00:10:32.803Z,1.08
2022-11-18T00:10:44.724Z,1.05
2022-11-18T00:10:56.651Z,1.05
2022-11-18T00:11:32.927Z,1.08
2022-11-18T00:12:03.329Z,1.08
2022-11-18T00:12:33.765Z,1.20
2022-11-18T00:13:04.161Z,1.33
2022-11-18T00:13:35.406Z,1.35
2022-11-18T00:14:05.650Z,1.50
2022-11-18T00:14:25.017Z,1.42
2022-11-18T00:14:37.005Z,1.35
2022-11-18T00:14:48.951Z,1.52
2022-11-18T00:15:00.866Z,1.48
2022-11-18T00:15:12.828Z,1.13
2022-11-18T00:15:30.425Z,1.20
2022-11-18T00:15:43.659Z,1.52
2022-11-18T00:16:10.472Z,1.58
2022-11-18T00:16:23.448Z,1.45
2022-11-18T00:16:35.358Z,1.70
2022-11-18T00:16:50.141Z,1.65
2022-11-18T00:17:04.760Z,1.60
2022-11-18T00:17:16.669Z,1.80
2022-11-18T00:17:28.578Z,1.80
2022-11-18T00:17:40.539Z,1.70
2022-11-18T00:17:52.553Z,1.70
2022-11-18T00:18:04.625Z,1.60
2022-11-18T00:18:16.538Z,1.35
2022-11-18T00:18:28.740Z,1.55
2022-11-18T00:18:40.687Z,1.50
2022-11-18T00:18:52.633Z,1.50
2022-11-18T00:19:04.561Z,1.60
2022-11-18T00:19:17.005Z,1.77
2022-11-18T00:19:34.458Z,1.83
2022-11-18T00:19:46.602Z,1.73
2022-11-18T00:19:58.812Z,1.67
2022-11-18T00:20:10.860Z,1.50
2022-11-18T00:20:22.781Z,1.60
2022-11-18T00:20:35.568Z,1.70
2022-11-18T00:20:47.471Z,1.58
2022-11-18T00:21:04.069Z,1.50
2022-11-18T00:21:16.021Z,1.40
2022-11-18T00:21:27.984Z,1.38
2022-11-18T00:21:39.994Z,1.33
2022-11-18T00:21:52.033Z,1.40
2022-11-18T00:22:05.948Z,1.38
2022-11-18T00:22:17.905Z,1.50
2022-11-18T00:22:30.195Z,1.42
2022-11-18T00:22:43.248Z,1.45
2022-11-18T00:22:55.205Z,1.48
2022-11-18T00:23:07.148Z,1.40
2022-11-18T00:23:19.057Z,1.40
2022-11-18T00:23:31.339Z,1.42
2022-11-18T00:23:43.363Z,1.50
2022-11-18T00:23:55.307Z,1.52
2022-11-18T00:24:07.677Z,1.60
2022-11-18T00:24:20.696Z,1.58
2022-11-18T00:24:33.031Z,1.60
2022-11-18T00:24:44.949Z,1.60
2022-11-18T00:24:56.898Z,1.35
2022-11-18T00:25:08.956Z,1.40
2022-11-18T00:25:20.901Z,1.40
2022-11-18T00:25:34.179Z,1.30
2022-11-18T00:25:46.120Z,1.30
2022-11-18T00:26:12.500Z,1.38
2022-11-18T00:26:24.458Z,1.33
2022-11-18T00:26:36.501Z,1.50
2022-11-18T00:26:48.614Z,1.42
2022-11-18T00:27:00.778Z,1.40
2022-11-18T00:27:12.702Z,1.35
2022-11-18T00:27:24.693Z,1.35
2022-11-18T00:27:36.640Z,1.50
2022-11-18T00:27:48.584Z,1.48
2022-11-18T00:28:00.488Z,1.40
2022-11-18T00:28:12.415Z,1.45
2022-11-18T00:28:24.358Z,1.50
2022-11-18T00:28:36.752Z,1.60
2022-11-18T00:28:48.695Z,1.55
2022-11-18T00:29:00.614Z,1.50
2022-11-18T00:29:12.795Z,1.60
2022-11-18T00:29:28.414Z,1.70
2022-11-18T00:29:40.642Z,1.70
2022-11-18T00:29:52.531Z,1.60
2022-11-18T00:30:04.788Z,1.67
2022-11-18T00:30:17.390Z,1.58
2022-11-18T00:30:29.305Z,1.52
2022-11-18T00:30:41.203Z,1.60
2022-11-18T00:30:53.059Z,1.65
2022-11-18T00:31:10.819Z,1.58
2022-11-18T00:31:22.759Z,1.60
2022-11-18T00:31:35.085Z,1.65
2022-11-18T00:31:47.897Z,1.67
2022-11-18T00:31:59.908Z,1.70
2022-11-18T00:32:11.873Z,1.52
2022-11-18T00:32:24.020Z,1.50
2022-11-18T00:32:35.921Z,1.40
2022-11-18T00:32:47.869Z,1.40
2022-11-18T00:32:59.840Z,1.50
2022-11-18T00:33:11.768Z,1.77
2022-11-18T00:33:23.709Z,1.88
2022-11-18T00:33:36.948Z,1.73
2022-11-18T00:33:48.883Z,1.52
2022-11-18T00:34:00.854Z,1.35
2022-11-18T00:34:15.953Z,1.30
2022-11-18T00:34:27.908Z,1.20
2022-11-18T00:34:39.905Z,1.20
2022-11-18T00:34:51.830Z,1.27
2022-11-18T00:35:04.024Z,1.25
2022-11-18T00:35:16.069Z,1.20
2022-11-18T00:35:28.049Z,1.20
2022-11-18T00:35:40.048Z,1.17
2022-11-18T00:35:55.665Z,1.25
2022-11-18T00:36:11.323Z,1.30
2022-11-18T00:36:23.448Z,1.30
2022-11-18T00:36:35.445Z,1.30
2022-11-18T00:36:48.077Z,1.48
2022-11-18T00:37:00.030Z,1.50
2022-11-18T00:37:12.015Z,1.60
2022-11-18T00:37:23.909Z,1.65
2022-11-18T00:37:35.862Z,1.73
2022-11-18T00:37:47.796Z,1.70
2022-11-18T00:37:59.693Z,1.67
2022-11-18T00:38:11.607Z,1.70
2022-11-18T00:38:24.289Z,1.65
2022-11-18T00:38:36.575Z,1.63
2022-11-18T00:38:48.661Z,1.50
2022-11-18T00:39:00.693Z,1.50
2022-11-18T00:39:15.399Z,1.40
2022-11-18T00:39:27.544Z,1.30
2022-11-18T00:39:39.463Z,1.30
2022-11-18T00:39:51.416Z,1.20
2022-11-18T00:40:03.887Z,1.35
2022-11-18T00:40:16.004Z,1.30
2022-11-18T00:40:27.903Z,1.42
2022-11-18T00:40:40.172Z,1.40
2022-11-18T00:41:06.005Z,1.58
2022-11-18T00:41:17.996Z,1.45
2022-11-18T00:41:49.952Z,1.30
2022-11-18T00:42:20.787Z,1.38
2022-11-18T00:42:51.287Z,1.30
2022-11-18T00:43:03.202Z,1.23
2022-11-18T00:43:15.178Z,1.33
2022-11-18T00:43:27.127Z,1.40
2022-11-18T00:43:39.425Z,1.50
2022-11-18T00:43:51.329Z,1.50
2022-11-18T00:44:09.140Z,1.40
2022-11-18T00:44:21.559Z,1.20
2022-11-18T00:44:33.789Z,1.30
2022-11-18T00:44:45.741Z,1.38
2022-11-18T00:44:57.649Z,1.25
2022-11-18T00:45:10.142Z,1.20
2022-11-18T00:45:23.357Z,1.17
2022-11-18T00:45:35.277Z,1.10
2022-11-18T00:45:47.247Z,1.05
2022-11-18T00:45:59.189Z,1.10
2022-11-18T00:46:12.254Z,1.15
2022-11-18T00:46:24.123Z,1.13
2022-11-18T00:46:36.056Z,1.10
2022-11-18T00:46:48.030Z,1.00
2022-11-18T00:47:00.046Z,1.02
2022-11-18T00:47:12.009Z,1.10
2022-11-18T00:47:24.260Z,1.00
2022-11-18T00:47:36.287Z,1.00
2022-11-18T00:47:48.209Z,1.10
2022-11-18T00:48:00.138Z,1.10
2022-11-18T00:48:12.122Z,1.13
2022-11-18T00:48:24.833Z,1.10
2022-11-18T00:48:37.245Z,1.10
2022-11-18T00:48:49.120Z,1.00
2022-11-18T00:49:01.005Z,1.20
2022-11-18T00:49:12.902Z,1.35
2022-11-18T00:49:25.093Z,1.33
2022-11-18T00:49:37.006Z,1.20
2022-11-18T00:49:48.939Z,1.30
2022-11-18T00:50:00.932Z,1.30
2022-11-18T00:50:13.013Z,1.20
2022-11-18T00:50:24.902Z,1.20
2022-11-18T00:50:36.855Z,1.25
2022-11-18T00:50:53.477Z,1.45
2022-11-18T00:51:08.319Z,1.27
2022-11-18T00:51:20.226Z,1.20
2022-11-18T00:51:32.129Z,1.45
2022-11-18T00:51:44.090Z,1.50
2022-11-18T00:51:56.355Z,1.40
2022-11-18T00:52:08.364Z,1.17
2022-11-18T00:52:20.417Z,1.10
2022-11-18T00:52:32.358Z,1.10
2022-11-18T00:52:44.312Z,1.17
2022-11-18T00:52:56.209Z,1.40
2022-11-18T00:53:08.130Z,1.23
2022-11-18T00:53:22.278Z,1.25
2022-11-18T00:53:34.215Z,1.20
2022-11-18T00:53:46.758Z,1.10
2022-11-18T00:53:58.718Z,1.10
2022-11-18T00:54:10.660Z,1.38
2022-11-18T00:54:22.657Z,1.35
2022-11-18T00:54:34.533Z,1.25
2022-11-18T00:54:46.476Z,1.17
2022-11-18T00:54:58.371Z,1.20
2022-11-18T00:55:10.393Z,1.30
2022-11-18T00:55:22.566Z,1.23
2022-11-18T00:55:34.529Z,1.13
2022-11-18T00:55:46.457Z,1.10
2022-11-18T00:55:58.351Z,1.00
2022-11-18T00:56:10.805Z,1.15
2022-11-18T00:56:22.717Z,1.30
2022-11-18T00:56:34.681Z,1.10
2022-11-18T00:56:46.575Z,1.20
2022-11-18T00:56:58.517Z,1.10
2022-11-18T00:57:10.450Z,1.30
2022-11-18T00:57:22.382Z,1.25
2022-11-18T00:57:34.335Z,1.20
2022-11-18T00:57:46.291Z,1.10
2022-11-18T00:57:58.257Z,1.10
2022-11-18T00:58:14.158Z,1.30
2022-11-18T00:58:26.093Z,1.50
2022-11-18T00:58:38.088Z,1.50
2022-11-18T00:58:50.083Z,1.33
2022-11-18T00:59:02.092Z,1.33
2022-11-18T00:59:14.031Z,1.30
2022-11-18T00:59:26.123Z,1.30
2022-11-18T00:59:38.087Z,1.20
2022-11-18T00:59:50.089Z,1.17
2022-11-18T01:00:02.045Z,1.10
2022-11-18T01:00:14.313Z,1.15
2022-11-18T01:00:26.375Z,1.30
2022-11-18T01:00:38.322Z,1.33
2022-11-18T01:00:52.066Z,1.25
2022-11-18T01:01:04.819Z,1.20
2022-11-18T01:01:16.880Z,1.30
2022-11-18T01:01:29.016Z,1.20
2022-11-18T01:01:41.183Z,1.30
2022-11-18T01:01:53.243Z,1.30
2022-11-18T01:02:05.199Z,1.20
2022-11-18T01:02:17.118Z,1.08
2022-11-18T01:02:29.063Z,1.08
2022-11-18T01:02:41.016Z,1.10
2022-11-18T01:02:52.905Z,1.10
2022-11-18T01:03:04.865Z,1.23
2022-11-18T01:03:17.190Z,1.42
2022-11-18T01:03:30.093Z,1.48
2022-11-18T01:03:41.999Z,1.40
2022-11-18T01:03:54.086Z,1.50
2022-11-18T01:04:06.196Z,1.52
2022-11-18T01:04:18.283Z,1.65
2022-11-18T01:04:30.403Z,1.55
2022-11-18T01:04:42.330Z,1.77
2022-11-18T01:04:54.238Z,2.22
2022-11-18T01:05:06.488Z,2.35
2022-11-18T01:05:18.437Z,2.15
2022-11-18T01:05:30.466Z,1.88
2022-11-18T01:05:42.531Z,1.80
2022-11-18T01:05:54.990Z,1.95
2022-11-18T01:06:06.966Z,1.90
2022-11-18T01:06:18.890Z,1.70
2022-11-18T01:06:30.916Z,1.63
2022-11-18T01:06:43.052Z,1.60
2022-11-18T01:06:55.038Z,1.63
2022-11-18T01:07:07.040Z,1.45
2022-11-18T01:07:19.046Z,1.50
2022-11-18T01:07:31.240Z,1.40
2022-11-18T01:07:43.204Z,1.38
2022-11-18T01:07:55.174Z,1.33
2022-11-18T01:08:09.679Z,1.30
2022-11-18T01:08:22.161Z,1.25
2022-11-18T01:08:34.104Z,1.33
2022-11-18T01:08:46.036Z,1.40
2022-11-18T01:08:57.943Z,1.30
2022-11-18T01:09:09.843Z,1.27
2022-11-18T01:09:21.811Z,1.30
2022-11-18T01:09:33.799Z,1.27
2022-11-18T01:09:45.752Z,1.30
2022-11-18T01:09:58.124Z,1.38
2022-11-18T01:10:10.054Z,1.50
2022-11-18T01:10:22.118Z,1.67
2022-11-18T01:10:34.577Z,1.45
2022-11-18T01:10:48.200Z,1.30
2022-11-18T01:11:20.145Z,1.20
2022-11-18T01:11:50.367Z,1.17
2022-11-18T01:12:20.623Z,1.33
2022-11-18T01:12:54.336Z,1.08
2022-11-18T01:13:20.399Z,0.98
2022-11-18T01:13:32.273Z,1.00
2022-11-18T01:13:44.202Z,1.00
2022-11-18T01:13:56.147Z,1.00
2022-11-18T01:14:08.063Z,1.10
2022-11-18T01:14:20.068Z,1.17
2022-11-18T01:14:32.139Z,1.20
2022-11-18T01:14:44.259Z,1.17
2022-11-18T01:14:56.205Z,1.20
2022-11-18T01:15:08.426Z,1.27
2022-11-18T01:15:20.373Z,1.15
2022-11-18T01:15:39.144Z,1.10
2022-11-18T01:15:58.862Z,1.10
2022-11-18T01:16:10.855Z,0.82
2022-11-18T01:16:25.639Z,0.90
2022-11-18T01:16:37.575Z,1.00
2022-11-18T01:16:51.258Z,1.00
2022-11-18T01:17:03.461Z,1.08
2022-11-18T01:17:15.425Z,1.08
2022-11-18T01:17:30.373Z,1.05
2022-11-18T01:17:42.416Z,0.95
2022-11-18T01:17:54.321Z,0.95
2022-11-18T01:18:06.567Z,1.00
2022-11-18T01:18:21.966Z,1.00
2022-11-18T01:18:33.911Z,0.88
2022-11-18T01:18:46.055Z,0.90
2022-11-18T01:18:58.187Z,1.00
2022-11-18T01:19:10.179Z,1.00
2022-11-18T01:19:22.550Z,1.17
2022-11-18T01:19:34.957Z,1.13
2022-11-18T01:19:47.011Z,1.10
2022-11-18T01:19:59.192Z,1.02
2022-11-18T01:20:11.496Z,1.08
2022-11-18T01:20:23.387Z,1.00
2022-11-18T01:20:36.156Z,1.00
2022-11-18T01:20:48.274Z,1.08
2022-11-18T01:21:01.906Z,1.05
2022-11-18T01:21:13.972Z,0.95
2022-11-18T01:21:25.913Z,1.00
2022-11-18T01:21:37.855Z,1.10
2022-11-18T01:21:50.153Z,1.15
2022-11-18T01:22:03.301Z,1.00
2022-11-18T01:22:15.517Z,0.90
2022-11-18T01:22:27.437Z,0.98
2022-11-18T01:22:39.447Z,1.00
2022-11-18T01:22:51.355Z,1.10
2022-11-18T01:23:03.700Z,1.20
2022-11-18T01:23:16.746Z,1.17
2022-11-18T01:23:28.646Z,1.20
2022-11-18T01:23:40.616Z,1.10
2022-11-18T01:23:52.524Z,0.98
2022-11-18T01:24:04.830Z,0.95
2022-11-18T01:24:16.854Z,1.10
2022-11-18T01:24:33.068Z,1.15
2022-11-18T01:24:44.984Z,0.90
2022-11-18T01:24:56.913Z,0.93
2022-11-18T01:25:09.518Z,1.02
2022-11-18T01:25:21.478Z,1.00
2022-11-18T01:25:36.983Z,1.00
2022-11-18T01:25:49.834Z,0.90
2022-11-18T01:26:08.707Z,0.70
2022-11-18T01:26:20.647Z,0.70
2022-11-18T01:26:32.565Z,0.70
2022-11-18T01:26:44.505Z,0.68
2022-11-18T01:26:56.481Z,0.65
2022-11-18T01:27:08.444Z,0.60
2022-11-18T01:27:20.403Z,0.60
2022-11-18T01:27:32.336Z,0.60
2022-11-18T01:27:44.404Z,0.60
2022-11-18T01:27:56.569Z,0.63
2022-11-18T01:28:08.813Z,0.70
2022-11-18T01:28:23.899Z,0.70
2022-11-18T01:28:36.705Z,0.70
2022-11-18T01:28:48.732Z,0.80
2022-11-18T01:29:00.650Z,0.85
2022-11-18T01:29:12.878Z,0.75
2022-11-18T01:29:24.868Z,0.70
2022-11-18T01:29:36.848Z,0.60
2022-11-18T01:29:48.782Z,0.60
2022-11-18T01:30:00.701Z,0.70
2022-11-18T01:30:13.225Z,0.80
2022-11-18T01:30:25.244Z,0.80
2022-11-18T01:30:38.921Z,0.60
2022-11-18T01:30:51.393Z,0.60
2022-11-18T01:31:12.316Z,0.60
2022-11-18T01:31:24.708Z,0.70
2022-11-18T01:31:50.113Z,0.73
2022-11-18T01:32:24.550Z,0.70
2022-11-18T01:32:37.345Z,0.73
2022-11-18T01:32:49.330Z,0.60
2022-11-18T01:33:03.518Z,0.60
2022-11-18T01:33:15.442Z,0.60
2022-11-18T01:33:27.469Z,0.60
2022-11-18T01:33:39.765Z,0.70
2022-11-18T01:33:52.219Z,0.63
2022-11-18T01:34:04.517Z,0.60
2022-11-18T01:34:16.648Z,0.60
2022-11-18T01:34:29.424Z,0.52
2022-11-18T01:34:41.369Z,0.60
2022-11-18T01:34:53.465Z,0.70
2022-11-18T01:35:05.895Z,0.70
2022-11-18T01:35:17.898Z,0.70
2022-11-18T01:35:35.233Z,0.70
2022-11-18T01:35:47.135Z,0.68
2022-11-18T01:35:59.050Z,0.90
2022-11-18T01:36:27.979Z,1.00
2022-11-18T01:36:39.901Z,0.85
2022-11-18T01:36:52.719Z,0.90
2022-11-18T01:37:04.633Z,0.70
2022-11-18T01:37:16.668Z,0.60
2022-11-18T01:37:28.677Z,0.60
2022-11-18T01:37:40.801Z,0.60
2022-11-18T01:37:52.747Z,0.65
2022-11-18T01:38:05.747Z,0.77
2022-11-18T01:38:17.643Z,0.80
2022-11-18T01:38:29.686Z,0.77
2022-11-18T01:38:41.648Z,0.68
2022-11-18T01:38:54.739Z,0.60
2022-11-18T01:39:06.722Z,0.65
2022-11-18T01:39:19.070Z,0.80
2022-11-18T01:39:31.451Z,0.80
2022-11-18T01:39:43.425Z,0.68
2022-11-18T01:39:55.360Z,0.60
2022-11-18T01:40:09.545Z,0.55
2022-11-18T01:40:21.527Z,0.50
2022-11-18T01:40:34.755Z,0.70
2022-11-18T01:40:46.724Z,0.70
2022-11-18T01:40:58.701Z,0.60
2022-11-18T01:41:11.295Z,0.60
2022-11-18T01:41:25.723Z,0.70
2022-11-18T01:41:37.668Z,0.73
2022-11-18T01:41:49.689Z,0.70
2022-11-18T01:42:01.698Z,0.60
2022-11-18T01:42:16.324Z,0.60
2022-11-18T01:42:28.269Z,0.63
2022-11-18T01:42:40.198Z,0.63
2022-11-18T01:42:52.106Z,0.52
2022-11-18T01:43:12.839Z,0.50
2022-11-18T01:43:24.801Z,0.50
2022-11-18T01:43:54.036Z,0.68
2022-11-18T01:44:44.870Z,0.60
2022-11-18T01:45:02.017Z,0.50
2022-11-18T01:45:37.635Z,0.70
2022-11-18T01:45:51.805Z,0.50
2022-11-18T01:46:03.800Z,0.60
2022-11-18T01:46:16.095Z,0.70
2022-11-18T01:46:30.921Z,0.68
2022-11-18T01:46:42.972Z,0.60
2022-11-18T01:46:54.933Z,0.60
2022-11-18T01:47:06.967Z,0.60
2022-11-18T01:47:19.984Z,0.77
2022-11-18T01:47:37.563Z,0.90
2022-11-18T01:48:02.963Z,0.90
2022-11-18T01:48:24.660Z,0.70
2022-11-18T01:48:36.994Z,0.77
2022-11-18T01:48:55.492Z,0.70
2022-11-18T01:49:13.702Z,0.63
2022-11-18T01:49:25.947Z,0.80
2022-11-18T01:49:37.920Z,0.80
2022-11-18T01:49:50.582Z,0.88
2022-11-18T01:50:03.625Z,0.93
2022-11-18T01:50:17.869Z,0.93
2022-11-18T01:50:30.664Z,0.90
2022-11-18T01:50:48.063Z,0.90
2022-11-18T01:51:05.980Z,1.02
2022-11-18T01:51:22.243Z,0.90
2022-11-18T01:51:38.996Z,0.80
2022-11-18T01:51:56.727Z,0.75
2022-11-18T01:52:08.992Z,0.88
2022-11-18T01:52:22.295Z,0.90
2022-11-18T01:52:35.346Z,1.00
2022-11-18T01:52:51.609Z,0.90
2022-11-18T01:53:08.580Z,0.70
2022-11-18T01:53:25.510Z,0.98
2022-11-18T01:53:49.971Z,1.10
2022-11-18T01:54:17.009Z,0.80
2022-11-18T01:54:35.954Z,0.80
2022-11-18T01:54:55.397Z,0.90
2022-11-18T01:55:16.532Z,0.90
2022-11-18T01:55:33.023Z,0.88
2022-11-18T01:55:51.459Z,0.80
2022-11-18T01:56:11.804Z,0.70
2022-11-18T01:56:26.807Z,0.80
2022-11-18T01:56:43.313Z,0.93
2022-11-18T01:57:00.394Z,0.88
2022-11-18T01:57:17.785Z,0.98
2022-11-18T01:57:32.301Z,1.08
2022-11-18T01:57:48.169Z,1.00
2022-11-18T01:58:18.262Z,0.93
2022-11-18T01:58:36.404Z,1.23
2022-11-18T01:58:57.507Z,1.30
2022-11-18T01:59:13.392Z,1.13
2022-11-18T01:59:30.406Z,1.20
2022-11-18T01:59:44.463Z,1.10
2022-11-18T01:59:58.125Z,1.20
2022-11-18T02:00:11.182Z,1.10
2022-11-18T02:00:23.336Z,1.02
2022-11-18T02:00:35.448Z,1.10
2022-11-18T02:00:47.771Z,1.15
2022-11-18T02:00:59.944Z,1.20
2022-11-18T02:01:12.939Z,1.10
2022-11-18T02:01:24.893Z,1.10
2022-11-18T02:01:37.315Z,1.05
2022-11-18T02:01:49.320Z,1.00
2022-11-18T02:02:05.282Z,0.90
2022-11-18T02:02:17.579Z,0.90
2022-11-18T02:02:33.079Z,0.90
2022-11-18T02:02:45.845Z,0.75
2022-11-18T02:03:00.307Z,0.70
2022-11-18T02:03:12.362Z,0.80
2022-11-18T02:03:25.472Z,0.90
2022-11-18T02:03:37.776Z,0.80
2022-11-18T02:03:50.739Z,0.80
2022-11-18T02:04:02.746Z,0.80
2022-11-18T02:04:15.147Z,0.90
2022-11-18T02:04:27.434Z,0.80
2022-11-18T02:04:42.063Z,0.77
2022-11-18T02:04:56.632Z,0.70
2022-11-18T02:05:10.879Z,1.60
2022-11-18T02:05:24.404Z,3.47
2022-11-18T02:05:37.949Z,3.83
2022-11-18T02:05:50.650Z,1.98
2022-11-18T02:06:04.853Z,1.42
2022-11-18T02:06:17.480Z,2.63
2022-11-18T02:06:29.448Z,3.55
2022-11-18T02:06:43.858Z,3.67
2022-11-18T02:06:56.690Z,4.28
2022-11-18T02:07:10.275Z,3.40
2022-11-18T02:07:22.613Z,1.98
2022-11-18T02:07:38.986Z,2.08
2022-11-18T02:07:51.888Z,2.35
2022-11-18T02:08:07.540Z,2.10
2022-11-18T02:08:20.756Z,1.70
2022-11-18T02:08:33.661Z,1.60
2022-11-18T02:08:45.779Z,1.55
2022-11-18T02:08:57.957Z,1.77
2022-11-18T02:09:10.312Z,1.75
2022-11-18T02:09:22.890Z,1.50
2022-11-18T02:09:37.051Z,1.40
2022-11-18T02:09:50.069Z,2.92
2022-11-18T02:10:05.631Z,3.88
2022-11-18T02:10:21.249Z,3.40
2022-11-18T02:10:33.241Z,3.55
2022-11-18T02:10:45.198Z,3.80
2022-11-18T02:10:57.172Z,3.40
2022-11-18T02:11:34.610Z,2.42
2022-11-18T02:11:50.840Z,1.33
2022-11-18T02:12:03.412Z,1.60
2022-11-18T02:12:15.519Z,1.60
2022-11-18T02:12:27.611Z,1.30
2022-11-18T02:12:39.539Z,1.23
2022-11-18T02:12:53.564Z,1.17
2022-11-18T02:13:05.682Z,1.23
2022-11-18T02:13:18.278Z,1.30
2022-11-18T02:13:32.325Z,1.35
2022-11-18T02:13:44.261Z,1.40
2022-11-18T02:13:57.637Z,1.40
2022-11-18T02:14:10.263Z,1.48
2022-11-18T02:14:30.364Z,1.40
2022-11-18T02:14:46.594Z,1.10
2022-11-18T02:15:00.044Z,1.23
2022-11-18T02:15:12.193Z,1.45
2022-11-18T02:15:36.689Z,1.60
2022-11-18T02:16:11.284Z,1.52
2022-11-18T02:16:34.504Z,1.45
2022-11-18T02:17:11.088Z,1.60
2022-11-18T02:17:37.543Z,1.40
2022-11-18T02:17:52.788Z,1.40
2022-11-18T02:18:19.918Z,1.30
2022-11-18T02:19:11.856Z,1.30
2022-11-18T02:19:38.744Z,1.10
2022-11-18T02:20:08.718Z,1.15
2022-11-18T02:20:25.454Z,1.17
2022-11-18T02:20:41.222Z,1.00
2022-11-18T02:20:59.623Z,0.82
2022-11-18T02:21:32.295Z,0.88
2022-11-18T02:21:54.883Z,0.90
2022-11-18T02:23:03.109Z,1.00
2022-11-18T02:23:30.225Z,0.75
2022-11-18T02:24:06.723Z,0.85
2022-11-18T02:24:37.015Z,0.70
2022-11-18T02:25:13.067Z,0.90
2022-11-18T02:25:52.743Z,0.88
2022-11-18T02:26:26.495Z,0.80
2022-11-18T02:26:59.265Z,0.65
2022-11-18T02:27:41.791Z,0.68
2022-11-18T02:28:24.324Z,0.60
2022-11-18T02:29:00.988Z,0.60
2022-11-18T02:29:44.607Z,0.70
2022-11-18T02:30:04.760Z,0.55
2022-11-18T02:30:18.648Z,0.68
2022-11-18T02:30:44.296Z,0.63
2022-11-18T02:31:11.801Z,0.75
2022-11-18T02:31:30.677Z,0.60
2022-11-18T02:31:53.465Z,0.65
2022-11-18T02:32:15.939Z,0.80
2022-11-18T02:32:54.224Z,0.55
2022-11-18T02:33:12.900Z,0.65
2022-11-18T02:33:31.998Z,0.70
2022-11-18T02:33:56.948Z,0.82
2022-11-18T02:34:33.304Z,0.90
2022-11-18T02:35:03.155Z,0.60
2022-11-18T02:35:29.191Z,0.75
2022-11-18T02:35:46.264Z,0.90
2022-11-18T02:36:53.826Z,0.60
2022-11-18T02:37:15.561Z,0.70
2022-11-18T02:37:36.744Z,0.60
2022-11-18T02:37:49.009Z,0.50
2022-11-18T02:38:12.031Z,0.57
2022-11-18T02:38:30.824Z,0.57
2022-11-18T02:38:48.352Z,0.63
2022-11-18T02:39:07.118Z,0.70
2022-11-18T02:39:45.648Z,0.52
2022-11-18T02:40:05.325Z,0.57
2022-11-18T02:40:25.028Z,0.50
2022-11-18T02:40:58.963Z,0.50
2022-11-18T02:41:17.754Z,0.50
2022-11-18T02:41:34.063Z,0.50
2022-11-18T02:41:49.593Z,0.47
2022-11-18T02:42:06.639Z,0.60
2022-11-18T02:42:20.564Z,0.60
2022-11-18T02:42:36.467Z,0.60
2022-11-18T02:42:54.582Z,0.90
2022-11-18T02:43:15.783Z,0.65
2022-11-18T02:43:33.490Z,0.55
2022-11-18T02:43:49.835Z,0.60
2022-11-18T02:44:13.806Z,0.50
2022-11-18T02:44:29.251Z,0.50
2022-11-18T02:44:50.311Z,0.50
2022-11-18T02:45:16.569Z,0.43
2022-11-18T02:45:30.728Z,0.40
2022-11-18T02:45:48.248Z,0.60
2022-11-18T02:46:07.969Z,0.68
2022-11-18T02:46:33.058Z,0.50
2022-11-18T02:46:52.324Z,0.50
2022-11-18T02:47:09.438Z,0.43
2022-11-18T02:47:24.615Z,0.68
2022-11-18T02:47:37.977Z,0.63
2022-11-18T02:47:52.100Z,0.40
2022-11-18T02:48:09.270Z,0.30
2022-11-18T02:48:26.349Z,0.40
2022-11-18T02:48:56.136Z,0.38
2022-11-18T02:49:14.089Z,0.40
2022-11-18T02:49:33.315Z,0.40
2022-11-18T02:49:50.018Z,0.50
2022-11-18T02:50:08.303Z,0.52
2022-11-18T02:50:25.310Z,0.40
2022-11-18T02:50:39.678Z,0.40
2022-11-18T02:50:53.039Z,0.40
2022-11-18T02:51:07.578Z,0.40
2022-11-18T02:51:25.751Z,0.50
2022-11-18T02:51:38.666Z,0.40
2022-11-18T02:51:52.480Z,0.38
2022-11-18T02:52:06.545Z,0.50
2022-11-18T02:52:20.708Z,0.50
2022-11-18T02:52:35.798Z,0.40
2022-11-18T02:52:53.302Z,0.30
2022-11-18T02:53:08.380Z,0.40
2022-11-18T02:53:24.230Z,0.50
2022-11-18T02:53:40.252Z,0.52
2022-11-18T02:53:55.338Z,0.50
2022-11-18T02:54:10.302Z,0.50
2022-11-18T02:54:24.592Z,0.50
2022-11-18T02:54:39.972Z,0.50
2022-11-18T02:54:53.994Z,0.40
2022-11-18T02:55:11.155Z,0.32
2022-11-18T02:55:25.488Z,0.30
2022-11-18T02:55:40.333Z,0.30
2022-11-18T02:55:53.476Z,0.45
2022-11-18T02:56:07.245Z,0.40
2022-11-18T02:56:21.342Z,0.40
2022-11-18T02:56:35.290Z,0.50
2022-11-18T02:56:50.442Z,0.40
2022-11-18T02:57:03.088Z,0.40
2022-11-18T02:57:15.929Z,0.40
2022-11-18T02:57:30.707Z,0.45
2022-11-18T02:57:44.721Z,0.50
2022-11-18T02:57:58.278Z,0.40
2022-11-18T02:58:12.132Z,0.40
2022-11-18T02:58:25.815Z,0.45
2022-11-18T02:58:37.696Z,0.40
2022-11-18T02:58:49.692Z,0.35
2022-11-18T02:59:03.422Z,0.30
2022-11-18T02:59:19.185Z,0.40
2022-11-18T02:59:31.817Z,0.52
2022-11-18T02:59:43.811Z,0.73
2022-11-18T02:59:55.797Z,1.30
2022-11-18T03:00:08.304Z,1.35
2022-11-18T03:00:20.285Z,0.82
2022-11-18T03:00:32.968Z,0.52
2022-11-18T03:00:45.267Z,0.52
2022-11-18T03:00:59.851Z,0.73
2022-11-18T03:01:23.729Z,0.80
2022-11-18T03:01:36.850Z,0.60
2022-11-18T03:01:48.978Z,0.55
2022-11-18T03:02:01.144Z,1.33
2022-11-18T03:02:18.137Z,1.67
2022-11-18T03:02:41.689Z,1.15
2022-11-18T03:02:53.628Z,0.80
2022-11-18T03:03:34.336Z,0.68
2022-11-18T03:03:47.035Z,0.68
2022-11-18T03:03:59.000Z,0.45
2022-11-18T03:04:13.759Z,0.52
2022-11-18T03:04:27.096Z,1.15
2022-11-18T03:04:39.253Z,1.80
2022-11-18T03:04:56.087Z,2.58
2022-11-18T03:05:17.007Z,3.40
2022-11-18T03:06:05.598Z,4.05
2022-11-18T03:06:31.697Z,2.40
2022-11-18T03:06:54.588Z,5.45
2022-11-18T03:07:35.950Z,5.35
2022-11-18T03:07:55.510Z,3.05
2022-11-18T03:08:13.800Z,2.50
2022-11-18T03:08:32.890Z,3.25
2022-11-18T03:08:49.325Z,6.05
2022-11-18T03:09:05.364Z,5.45
2022-11-18T03:09:29.297Z,4.35
2022-11-18T03:09:44.871Z,5.13
2022-11-18T03:09:59.582Z,3.13
2022-11-18T03:10:11.811Z,3.80
2022-11-18T03:10:29.404Z,4.35
2022-11-18T03:10:52.345Z,3.85
2022-11-18T03:11:14.495Z,1.77
2022-11-18T03:11:33.076Z,1.10
2022-11-18T03:11:56.622Z,0.90
2022-11-18T03:12:23.896Z,0.82
2022-11-18T03:12:56.964Z,1.10
2022-11-18T03:13:20.492Z,1.00
2022-11-18T03:14:07.641Z,0.60
2022-11-18T03:14:39.165Z,0.63
2022-11-18T03:14:53.827Z,0.60
2022-11-18T03:15:32.963Z,0.57
2022-11-18T03:15:56.282Z,0.50
2022-11-18T03:16:18.159Z,0.70
2022-11-18T03:16:36.434Z,0.57
2022-11-18T03:16:56.623Z,0.40
2022-11-18T03:17:27.139Z,0.43
2022-11-18T03:18:20.299Z,0.40
2022-11-18T03:18:55.124Z,0.43
2022-11-18T03:19:12.689Z,0.40
2022-11-18T03:20:01.337Z,0.30
2022-11-18T03:20:45.192Z,0.25
2022-11-18T03:21:23.776Z,0.30
2022-11-18T03:21:41.180Z,0.32
2022-11-18T03:22:20.458Z,0.35
2022-11-18T03:22:49.291Z,0.30
2022-11-18T03:23:14.642Z,0.50
2022-11-18T03:23:38.463Z,0.43
2022-11-18T03:23:58.224Z,0.40
2022-11-18T03:24:18.979Z,0.65
2022-11-18T03:24:33.895Z,0.52
2022-11-18T03:24:55.475Z,0.50
2022-11-18T03:25:14.553Z,0.40
2022-11-18T03:25:46.772Z,0.40
2022-11-18T03:26:25.473Z,0.40
2022-11-18T03:26:41.818Z,0.32
2022-11-18T03:27:13.830Z,0.40
2022-11-18T03:27:36.060Z,0.38
2022-11-18T03:27:57.269Z,0.30
2022-11-18T03:28:25.852Z,0.40
2022-11-18T03:28:49.175Z,0.40
2022-11-18T03:29:10.392Z,0.35
2022-11-18T03:29:28.676Z,0.30
2022-11-18T03:29:48.527Z,0.35
2022-11-18T03:30:07.066Z,0.40
2022-11-18T03:30:21.989Z,0.43
2022-11-18T03:30:37.230Z,0.38
2022-11-18T03:31:31.133Z,0.52
2022-11-18T03:31:53.555Z,0.45